Time;durP1;ratioP1;P1;durP2;ratioP2;P2;SDS_P1;SDS_P2;PMS_P1;PMS_P2;Temp;Humidity;BMP_temperature;BMP_pressure;BME280_temperature;BME280_humidity;BME280_pressure;Samples;Min_cycle;Max_cycle;Signal;HPM_P1;HPM_P2
2022/01/23 00:00:05;;;;;;;5.73;5.10;;;;;;;-0.84;100.00;99866.31;5050382;28;20295;-58
2022/01/23 00:02:35;;;;;;;6.43;5.03;;;;;;;-0.94;100.00;99875.44;5050290;28;20227;-60
2022/01/23 00:05:06;;;;;;;6.13;4.87;;;;;;;-0.88;100.00;99885.75;5050107;28;20664;-58
2022/01/23 00:07:34;;;;;;;8.47;5.43;;;;;;;-1.14;100.00;99852.06;5050165;28;20193;-61
2022/01/23 00:10:01;;;;;;;6.57;4.90;;;;;;;-0.86;100.00;99888.34;5050211;28;20199;-60
2022/01/23 00:12:31;;;;;;;6.30;5.70;;;;;;;-1.01;100.00;99888.84;5049994;28;20197;-60
2022/01/23 00:17:46;;;;;;;6.57;5.37;;;;;;;-1.14;100.00;99891.94;5024208;28;20254;-57
2022/01/23 00:20:13;;;;;;;6.60;5.27;;;;;;;-1.01;100.00;99900.72;5050150;28;20198;-57
2022/01/23 00:22:45;;;;;;;7.13;5.53;;;;;;;-0.92;100.00;99906.06;5050230;28;20313;-60
2022/01/23 00:30:43;;;;;;;7.17;5.90;;;;;;;-1.08;100.00;99911.59;5050233;28;20263;-60
2022/01/23 00:33:13;;;;;;;6.87;5.63;;;;;;;-1.19;100.00;99913.88;5050122;28;20231;-60
2022/01/23 00:35:42;;;;;;;5.47;4.97;;;;;;;-1.10;100.00;99914.09;5049682;28;20232;-60
2022/01/23 00:38:10;;;;;;;6.67;5.63;;;;;;;-1.01;100.00;99918.53;5049706;28;20196;-57
2022/01/23 00:40:40;;;;;;;6.90;4.93;;;;;;;-0.99;100.00;99916.91;5049738;28;20200;-57
2022/01/23 00:43:14;;;;;;;6.37;5.63;;;;;;;-1.05;100.00;99917.63;5049781;28;20217;-57
2022/01/23 00:45:45;;;;;;;8.23;5.83;;;;;;;-1.11;100.00;99902.19;5049891;28;20195;-57
2022/01/23 00:48:15;;;;;;;5.47;4.97;;;;;;;-1.09;100.00;99926.00;5049988;28;20635;-57
2022/01/23 00:50:45;;;;;;;6.17;5.03;;;;;;;-1.11;100.00;99931.06;5050136;28;20223;-60
2022/01/23 00:53:14;;;;;;;5.27;4.77;;;;;;;-1.07;100.00;99926.91;5049741;28;20189;-57
2022/01/23 00:55:43;;;;;;;5.23;4.70;;;;;;;-1.08;100.00;99926.88;5049599;28;20193;-57
2022/01/23 00:58:10;;;;;;;6.73;5.40;;;;;;;-1.14;99.04;99927.59;5049672;28;20644;-57
2022/01/23 01:00:37;;;;;;;5.53;4.77;;;;;;;-1.18;97.18;99920.69;5049772;28;20209;-61
2022/01/23 01:03:04;;;;;;;4.97;4.47;;;;;;;-1.06;94.75;99921.00;5051867;28;20220;-61
2022/01/23 01:05:33;;;;;;;7.33;4.83;;;;;;;-1.16;94.19;99925.00;5053424;28;20211;-57
2022/01/23 01:08:03;;;;;;;8.37;4.67;;;;;;;-1.14;92.49;99932.69;5053605;28;20196;-57
2022/01/23 01:10:36;;;;;;;5.03;4.53;;;;;;;-1.20;93.35;99930.00;5053561;28;20205;-57
2022/01/23 01:13:05;;;;;;;5.00;4.50;;;;;;;-1.16;92.80;99936.88;5053754;28;20588;-59
2022/01/23 01:15:57;;;;;;;4.77;4.27;;;;;;;-1.30;92.48;99910.22;5053538;28;20204;-60
2022/01/23 01:32:11;;;;;;;5.53;4.43;;;;;;;-0.87;90.65;99933.34;5053198;28;20272;-57
2022/01/23 01:34:39;;;;;;;6.10;5.10;;;;;;;-1.00;90.00;99941.50;5052819;28;20700;-57
2022/01/23 01:37:09;;;;;;;5.73;4.57;;;;;;;-1.06;90.39;99935.44;5052564;28;20740;-57
2022/01/23 01:39:37;;;;;;;7.13;5.50;;;;;;;-1.01;90.90;99937.25;5053005;28;20314;-57
2022/01/23 01:42:05;;;;;;;8.07;5.47;;;;;;;-1.03;90.98;99935.50;5052803;28;20264;-57
2022/01/23 01:44:32;;;;;;;8.33;5.50;;;;;;;-0.98;90.65;99941.56;5052925;28;20206;-57
2022/01/23 01:46:59;;;;;;;7.50;5.33;;;;;;;-1.00;89.97;99945.75;5052785;28;20188;-57
2022/01/23 01:49:29;;;;;;;8.77;5.60;;;;;;;-1.01;89.93;99952.53;5052766;28;20201;-59
2022/01/23 01:51:57;;;;;;;7.50;4.90;;;;;;;-1.01;89.87;99956.75;5053130;28;20197;-60
2022/01/23 01:54:29;;;;;;;6.87;5.40;;;;;;;-1.01;89.84;99965.25;5052650;28;20288;-59
2022/01/23 01:57:06;;;;;;;5.83;5.27;;;;;;;-1.07;89.58;99957.47;5052332;28;20196;-59
2022/01/23 01:59:47;;;;;;;10.20;5.43;;;;;;;-0.97;88.90;99961.97;5052571;28;20258;-59
2022/01/23 02:10:31;;;;;;;8.13;5.30;;;;;;;-0.96;87.49;99953.50;5052603;28;20702;-57
2022/01/23 02:13:09;;;;;;;7.47;5.07;;;;;;;-1.12;87.97;99949.72;5051908;28;20199;-61
2022/01/23 02:16:15;;;;;;;6.07;5.47;;;;;;;-1.12;87.58;99943.75;5052375;28;20618;-60
2022/01/23 02:52:15;;;;;;;8.83;6.13;;;;;;;-1.18;88.00;99952.13;5044409;28;20273;-60
2022/01/23 02:54:54;;;;;;;5.80;5.27;;;;;;;-1.14;88.07;99948.84;5051826;28;20196;-60
2022/01/23 02:57:34;;;;;;;7.27;5.57;;;;;;;-1.12;86.88;99953.94;5051230;28;20203;-60
2022/01/23 03:00:01;;;;;;;9.77;6.50;;;;;;;-1.19;86.29;99959.72;5051589;28;20740;-60
2022/01/23 03:02:35;;;;;;;8.90;6.07;;;;;;;-1.16;86.36;99967.44;5051449;28;20224;-60
2022/01/23 03:05:04;;;;;;;6.30;5.43;;;;;;;-1.02;85.69;99960.16;5051608;28;20200;-60
2022/01/23 03:07:52;;;;;;;9.50;5.83;;;;;;;-1.19;85.96;99959.72;5051258;28;20673;-57
2022/01/23 03:10:24;;;;;;;9.00;5.60;;;;;;;-1.03;85.57;99966.94;5051162;28;20262;-58
2022/01/23 03:15:46;;;;;;;6.53;4.77;;;;;;;-0.99;83.75;99968.72;5051366;28;20757;-57
2022/01/23 03:24:18;;;;;;;7.23;4.83;;;;;;;-0.91;82.40;99961.28;5012596;28;20206;-57
2022/01/23 03:26:57;;;;;;;9.00;3.90;;;;;;;-0.94;83.10;99969.72;5050191;28;20201;-57
2022/01/23 03:29:26;;;;;;;5.87;4.40;;;;;;;-0.93;82.46;99968.03;5050465;28;20254;-57
2022/01/23 03:32:11;;;;;;;7.07;4.63;;;;;;;-0.92;82.37;99973.16;5051199;28;20199;-57
2022/01/23 03:34:38;;;;;;;5.40;4.23;;;;;;;-0.94;82.78;99973.94;5050840;28;20239;-60
2022/01/23 03:37:05;;;;;;;5.60;4.43;;;;;;;-0.92;82.71;99973.16;5050929;28;20635;-60
2022/01/23 03:39:32;;;;;;;7.03;4.57;;;;;;;-1.01;83.25;99970.34;5050633;28;20656;-60
2022/01/23 03:42:01;;;;;;;6.47;4.53;;;;;;;-0.95;83.16;99978.16;5050477;28;20231;-61
2022/01/23 03:44:28;;;;;;;5.10;4.60;;;;;;;-0.91;82.47;99981.66;5050923;28;20666;-61
2022/01/23 03:47:20;;;;;;;5.07;4.17;;;;;;;-0.98;82.53;99977.22;5050737;28;20288;-61
2022/01/23 03:49:48;;;;;;;6.30;4.53;;;;;;;-0.94;82.24;99974.81;5050561;28;20200;-59
2022/01/23 03:52:15;;;;;;;6.17;4.47;;;;;;;-1.02;82.25;99953.38;5050518;28;20203;-60
2022/01/23 03:54:43;;;;;;;7.97;4.40;;;;;;;-0.91;81.55;99974.88;5050539;28;20197;-60
2022/01/23 03:57:11;;;;;;;7.57;4.33;;;;;;;-0.85;81.10;99990.31;5050762;28;20696;-60
2022/01/23 03:59:39;;;;;;;6.97;4.57;;;;;;;-0.92;81.25;99985.03;5050836;28;20607;-61
2022/01/23 04:02:06;;;;;;;7.17;4.73;;;;;;;-0.95;81.74;99979.84;5050403;28;20224;-62
2022/01/23 04:04:40;;;;;;;7.03;4.47;;;;;;;-0.85;82.52;99990.31;5050497;28;20208;-58
2022/01/23 04:07:09;;;;;;;8.60;5.20;;;;;;;-0.82;81.96;99986.97;5050176;28;20207;-56
2022/01/23 04:09:38;;;;;;;6.53;4.63;;;;;;;-0.82;81.48;99992.06;5050394;28;20256;-61
2022/01/23 04:12:06;;;;;;;4.57;3.97;;;;;;;-0.87;81.17;99991.09;5050192;28;20200;-59
2022/01/23 04:14:38;;;;;;;6.07;4.07;;;;;;;-0.85;80.58;99985.22;5050479;28;20704;-59
2022/01/23 04:33:52;;;;;;;6.23;4.53;;;;;;;-0.92;81.70;100000.31;5050286;28;20322;-59
2022/01/23 04:48:32;;;;;;;5.00;4.27;;;;;;;-1.12;84.02;99995.56;5054182;28;20279;-60
2022/01/23 05:01:56;;;;;;;8.37;3.90;;;;;;;-0.98;83.61;100029.03;5053759;28;20250;-60
2022/01/23 05:04:30;;;;;;;5.37;4.73;;;;;;;-1.10;83.70;99996.47;5054094;28;20211;-60
2022/01/23 05:07:02;;;;;;;5.03;4.50;;;;;;;-0.88;83.92;100042.88;5053701;28;20200;-60
2022/01/23 05:09:30;;;;;;;5.13;4.63;;;;;;;-1.06;82.82;100015.25;5053589;28;20208;-61
2022/01/23 05:11:59;;;;;;;4.77;4.33;;;;;;;-0.92;82.25;100041.94;5053772;28;20581;-61
2022/01/23 05:14:31;;;;;;;4.93;4.40;;;;;;;-0.85;82.29;100042.97;5053406;28;20258;-60
2022/01/23 05:16:58;;;;;;;5.93;4.13;;;;;;;-0.82;81.86;100038.81;5053595;28;20278;-58
2022/01/23 05:19:27;;;;;;;5.47;4.37;;;;;;;-0.95;82.00;100018.94;5053474;28;20299;-60
2022/01/23 05:24:47;;;;;;;5.43;4.23;;;;;;;-0.94;81.86;100038.50;5053506;28;20196;-60
2022/01/23 05:27:14;;;;;;;5.63;4.50;;;;;;;-0.75;82.21;100061.06;5053628;28;20753;-59
2022/01/23 05:29:41;;;;;;;6.33;4.63;;;;;;;-0.86;82.89;100057.38;5053314;28;20726;-56
2022/01/23 05:32:12;;;;;;;10.23;4.37;;;;;;;-0.96;83.15;100055.44;5052980;28;20202;-60
2022/01/23 05:34:41;;;;;;;6.93;4.40;;;;;;;-0.87;83.12;100059.88;5053232;28;20632;-59
2022/01/23 05:37:08;;;;;;;5.67;4.20;;;;;;;-0.87;82.27;100054.78;5053190;28;20197;-57
2022/01/23 05:39:35;;;;;;;7.53;4.90;;;;;;;-0.83;81.95;100067.66;5053014;28;20196;-55
2022/01/23 05:42:07;;;;;;;5.27;4.37;;;;;;;-0.91;82.61;100055.56;5052738;28;20373;-56
2022/01/23 05:44:35;;;;;;;7.10;5.10;;;;;;;-0.98;82.93;100046.00;5052924;28;20196;-57
2022/01/23 05:47:02;;;;;;;5.70;4.30;;;;;;;-0.84;82.93;100062.53;5052839;28;20684;-57
2022/01/23 05:49:29;;;;;;;5.30;4.43;;;;;;;-0.80;82.87;100057.56;5051908;28;20200;-56
2022/01/23 05:51:58;;;;;;;7.00;4.43;;;;;;;-0.80;82.37;100057.56;5052914;28;20570;-57
2022/01/23 05:54:25;;;;;;;8.60;4.73;;;;;;;-0.74;82.75;100073.00;5052924;28;20256;-57
2022/01/23 05:56:52;;;;;;;6.73;4.83;;;;;;;-0.67;82.35;100079.09;5052715;28;20203;-57
2022/01/23 05:59:20;;;;;;;6.23;4.70;;;;;;;-0.65;83.02;100061.28;5052738;28;20747;-57
2022/01/23 06:01:47;;;;;;;5.60;4.17;;;;;;;-0.61;82.48;100073.28;5052563;28;20196;-57
2022/01/23 06:04:14;;;;;;;5.47;4.47;;;;;;;-0.65;81.70;100079.13;5052581;28;20608;-57
2022/01/23 06:06:41;;;;;;;6.70;4.17;;;;;;;-0.55;81.96;100073.44;5052525;28;20196;-57
2022/01/23 06:09:10;;;;;;;6.70;4.63;;;;;;;-0.46;81.02;100079.66;5052491;28;20196;-57
2022/01/23 06:11:37;;;;;;;7.43;4.80;;;;;;;-0.33;81.26;100079.91;5052319;28;20198;-57
2022/01/23 06:14:04;;;;;;;5.47;4.70;;;;;;;-0.23;80.02;100089.53;5052154;28;20569;-57
2022/01/23 06:16:31;;;;;;;6.77;4.53;;;;;;;-0.07;79.60;100087.34;5051930;28;20203;-61
2022/01/23 06:18:58;;;;;;;8.37;4.53;;;;;;;0.07;79.83;100085.13;5052522;28;20643;-61
2022/01/23 06:21:25;;;;;;;6.53;4.77;;;;;;;0.16;78.51;100077.66;5052143;28;20285;-61
2022/01/23 06:24:01;;;;;;;5.97;4.70;;;;;;;0.25;78.22;100082.09;5052283;28;20291;-58
2022/01/23 06:26:41;;;;;;;5.83;5.27;;;;;;;0.25;78.76;100082.97;5051494;28;20200;-57
2022/01/23 06:29:09;;;;;;;5.13;4.30;;;;;;;0.28;77.20;100088.13;5052242;28;20208;-58
2022/01/23 06:31:36;;;;;;;4.90;4.10;;;;;;;0.30;76.83;100100.94;5051865;28;20213;-58
2022/01/23 06:34:05;;;;;;;5.23;4.20;;;;;;;0.23;76.79;100093.94;5052024;28;20195;-57
2022/01/23 06:36:33;;;;;;;7.00;3.93;;;;;;;0.31;77.05;100092.44;5051610;28;20726;-57
2022/01/23 06:39:00;;;;;;;4.47;4.03;;;;;;;0.39;76.72;100102.81;5051732;28;20307;-57
2022/01/23 06:41:27;;;;;;;6.00;4.20;;;;;;;0.43;76.38;100096.97;5052153;28;20208;-61
2022/01/23 06:43:55;;;;;;;4.80;4.30;;;;;;;0.52;75.96;100104.81;5052178;28;20724;-61
2022/01/23 06:46:22;;;;;;;4.63;4.00;;;;;;;0.66;86.67;100098.28;5048535;28;20220;-60
2022/01/23 06:48:49;;;;;;;4.40;4.00;;;;;;;0.49;77.88;100072.41;5051297;28;20305;-60
2022/01/23 06:51:16;;;;;;;7.17;4.23;;;;;;;0.65;76.34;100099.13;5050946;28;20698;-60
2022/01/23 06:53:43;;;;;;;4.40;4.00;;;;;;;0.69;75.70;100091.53;5050755;28;20213;-60
2022/01/23 06:56:10;;;;;;;4.67;4.23;;;;;;;0.63;73.88;100096.53;5051012;28;20673;-61
2022/01/23 06:58:37;;;;;;;5.50;4.07;;;;;;;0.61;74.18;100102.44;5050549;28;20656;-58
2022/01/23 07:01:07;;;;;;;11.97;4.33;;;;;;;0.63;74.23;100093.97;5050995;28;20202;-58
2022/01/23 07:03:34;;;;;;;4.00;3.70;;;;;;;0.49;74.90;100097.94;5051229;28;20264;-57
2022/01/23 07:06:01;;;;;;;4.83;4.23;;;;;;;0.52;74.98;100095.44;5049579;28;20206;-57
2022/01/23 07:08:28;;;;;;;5.67;4.27;;;;;;;0.42;74.49;100088.44;5050022;28;20292;-57
2022/01/23 07:10:55;;;;;;;6.40;4.83;;;;;;;0.48;73.99;100092.78;5050732;28;20586;-61
2022/01/23 07:13:22;;;;;;;7.40;4.67;;;;;;;0.44;74.04;100088.47;5050737;28;20576;-61
2022/01/23 07:15:50;;;;;;;6.37;4.07;;;;;;;0.47;74.18;100089.38;5049836;28;20201;-61
2022/01/23 07:18:19;;;;;;;6.83;5.17;;;;;;;0.49;73.57;100100.50;5050267;28;20578;-57
2022/01/23 07:20:47;;;;;;;7.63;4.23;;;;;;;0.51;73.83;100103.94;5049941;28;21285;-57
2022/01/23 07:23:14;;;;;;;7.70;4.60;;;;;;;0.48;74.26;100095.34;5048714;28;20779;-57
2022/01/23 07:25:41;;;;;;;6.13;4.60;;;;;;;0.47;73.97;100099.59;5048667;28;20200;-57
2022/01/23 07:28:13;;;;;;;5.80;4.43;;;;;;;0.49;73.44;100103.03;5049409;28;20640;-57
2022/01/23 07:30:47;;;;;;;5.90;5.00;;;;;;;0.40;74.10;100107.97;5049142;28;20840;-57
2022/01/23 07:33:14;;;;;;;6.20;5.03;;;;;;;0.41;73.51;100112.25;5044362;28;20196;-57
2022/01/23 07:35:42;;;;;;;5.43;4.50;;;;;;;0.34;74.04;100107.81;5049080;28;20232;-57
2022/01/23 07:38:11;;;;;;;6.13;4.77;;;;;;;0.29;73.52;100079.66;5047810;28;20297;-58
2022/01/23 07:40:38;;;;;;;5.40;4.53;;;;;;;0.48;72.81;100108.13;5049480;28;20669;-58
2022/01/23 07:43:05;;;;;;;4.83;4.27;;;;;;;0.45;73.09;100118.28;5046012;28;20795;-57
2022/01/23 07:45:32;;;;;;;5.60;4.83;;;;;;;0.31;72.64;100092.44;5046651;28;20197;-58
2022/01/23 07:47:59;;;;;;;6.37;5.47;;;;;;;0.25;72.40;100077.00;5048839;28;20639;-58
2022/01/23 07:50:26;;;;;;;5.23;4.60;;;;;;;0.56;71.77;100124.47;5048132;28;20226;-60
2022/01/23 07:52:54;;;;;;;7.20;5.27;;;;;;;0.64;72.08;100116.16;5046196;28;20224;-57
2022/01/23 07:55:21;;;;;;;5.03;4.53;;;;;;;0.68;71.72;100117.91;5049649;28;20199;-61
2022/01/23 07:57:50;;;;;;;5.57;4.80;;;;;;;0.78;70.67;100113.00;5050287;28;20220;-60
2022/01/23 08:00:17;;;;;;;5.90;4.90;;;;;;;0.83;71.20;100129.28;5049180;28;20717;-61
2022/01/23 08:02:44;;;;;;;7.73;4.63;;;;;;;0.85;70.81;100117.41;5050303;28;20194;-61
2022/01/23 08:05:11;;;;;;;6.37;4.67;;;;;;;1.04;69.90;100119.47;5049434;28;20204;-60
2022/01/23 08:07:38;;;;;;;5.73;4.40;;;;;;;1.15;69.03;100107.75;5048810;28;20652;-60
2022/01/23 08:10:09;;;;;;;4.80;4.40;;;;;;;1.28;68.84;100112.25;5049429;28;20219;-60
2022/01/23 08:12:36;;;;;;;11.27;5.57;;;;;;;1.29;69.14;100111.41;5048641;28;20283;-56
2022/01/23 08:15:05;;;;;;;6.73;4.97;;;;;;;1.37;68.35;100114.97;5042752;28;20764;-57
2022/01/23 08:17:32;;;;;;;8.00;5.27;;;;;;;1.44;67.62;100118.50;5047555;28;20262;-61
2022/01/23 08:20:00;;;;;;;8.57;5.30;;;;;;;1.49;67.81;100098.97;5048532;28;20215;-61
2022/01/23 08:22:29;;;;;;;6.50;5.40;;;;;;;1.43;67.40;100094.63;5048305;28;20212;-61
2022/01/23 08:24:57;;;;;;;8.30;5.97;;;;;;;1.53;68.82;100092.22;5049011;28;20552;-62
2022/01/23 08:27:27;;;;;;;9.97;6.00;;;;;;;1.52;67.89;100093.06;5049904;28;20726;-61
2022/01/23 08:29:54;;;;;;;13.77;6.73;;;;;;;1.45;68.20;100095.53;5049947;28;20295;-61
2022/01/23 08:32:21;;;;;;;13.00;6.70;;;;;;;1.36;68.89;100099.59;5049517;28;20193;-62
2022/01/23 08:34:48;;;;;;;7.23;6.53;;;;;;;1.43;68.72;100104.88;5049473;28;20312;-62
2022/01/23 08:37:16;;;;;;;7.80;6.73;;;;;;;1.38;68.18;100101.34;5049363;28;20303;-62
2022/01/23 08:39:43;;;;;;;9.67;6.80;;;;;;;1.31;68.28;100073.09;5044329;28;20192;-62
2022/01/23 08:42:12;;;;;;;11.27;6.43;;;;;;;1.49;67.80;100085.31;5049304;28;20236;-62
2022/01/23 08:44:41;;;;;;;8.47;6.27;;;;;;;1.73;66.89;100098.53;5046908;28;20215;-62
2022/01/23 08:47:08;;;;;;;7.43;6.50;;;;;;;1.83;66.18;100098.69;5039638;28;20216;-62
2022/01/23 08:49:43;;;;;;;12.20;5.97;;;;;;;1.99;66.26;100094.66;5049611;28;20191;-63
2022/01/23 08:52:11;;;;;;;5.77;4.80;;;;;;;1.99;64.51;100092.13;5049068;28;20227;-56
2022/01/23 08:54:38;;;;;;;8.60;5.10;;;;;;;1.91;63.94;100087.72;5046032;28;20226;-56
2022/01/23 08:57:06;;;;;;;12.20;8.37;;;;;;;1.82;64.95;100093.53;5048564;28;20224;-56
2022/01/23 08:59:33;;;;;;;8.40;5.60;;;;;;;1.83;64.68;100085.03;5049656;28;20656;-55
2022/01/23 09:02:01;;;;;;;7.93;4.97;;;;;;;1.86;63.62;100077.41;5049998;28;20200;-57
2022/01/23 09:04:28;;;;;;;20.30;7.17;;;;;;;1.91;64.30;100064.69;5049620;28;20224;-56
2022/01/23 09:06:56;;;;;;;7.37;4.77;;;;;;;2.05;62.07;100071.69;5049584;28;20744;-57
2022/01/23 09:09:24;;;;;;;11.90;6.57;;;;;;;2.08;62.04;100073.44;5049585;28;20205;-55
2022/01/23 09:12:02;;;;;;;6.87;5.30;;;;;;;2.06;61.98;100081.09;5049273;28;20218;-56
2022/01/23 09:14:29;;;;;;;5.50;3.47;;;;;;;2.04;61.21;100085.34;5049030;28;20254;-56
2022/01/23 09:16:56;;;;;;;6.17;4.30;;;;;;;2.18;61.71;100077.84;5049514;28;20193;-56
2022/01/23 09:19:25;;;;;;;6.67;3.77;;;;;;;2.12;60.42;100072.66;5049322;28;20196;-56
2022/01/23 09:21:54;;;;;;;6.00;3.97;;;;;;;2.17;61.67;100071.88;5049363;28;20616;-56
2022/01/23 09:24:23;;;;;;;4.77;4.27;;;;;;;2.11;62.23;100066.69;5051624;28;20628;-54
2022/01/23 09:26:54;;;;;;;4.30;3.80;;;;;;;2.18;62.55;100068.47;5053391;28;20708;-56
2022/01/23 09:29:30;;;;;;;7.10;3.63;;;;;;;2.36;61.21;100052.50;5051114;28;20597;-56
2022/01/23 09:31:58;;;;;;;8.27;4.20;;;;;;;2.43;62.16;100056.00;5048996;28;20723;-55
2022/01/23 09:34:31;;;;;;;5.83;4.20;;;;;;;2.27;61.29;100049.81;5052402;28;20240;-61
2022/01/23 09:36:59;;;;;;;7.10;4.67;;;;;;;2.31;60.37;100058.41;5053305;28;20236;-62
2022/01/23 09:56:03;;;;;;;10.20;3.97;;;;;;;2.16;58.93;99993.31;5093981;27;21097;-59
2022/01/23 09:58:30;;;;;;;7.27;4.07;;;;;;;2.28;59.01;100009.69;5097082;28;20188;-54
2022/01/23 10:00:59;;;;;;;7.57;3.83;;;;;;;2.30;58.07;100006.31;5095685;28;20309;-54
2022/01/23 10:03:26;;;;;;;5.17;4.00;;;;;;;2.29;58.43;100002.03;5095170;28;20230;-54
2022/01/23 10:05:55;;;;;;;7.10;4.20;;;;;;;2.32;58.51;99999.50;5087565;28;20207;-54
2022/01/23 10:08:23;;;;;;;3.80;3.50;;;;;;;2.35;57.49;99997.00;5087322;28;20196;-54
2022/01/23 10:10:53;;;;;;;4.80;3.97;;;;;;;2.37;58.26;99994.47;5088209;28;20676;-54
2022/01/23 10:13:24;;;;;;;7.97;4.20;;;;;;;2.39;57.51;99992.75;5124511;28;20206;-53
2022/01/23 10:15:51;;;;;;;4.83;4.40;;;;;;;2.45;57.10;99996.25;5114188;28;20302;-54
2022/01/23 10:18:20;;;;;;;5.40;3.63;;;;;;;2.42;56.34;99992.78;5111412;28;20220;-54
2022/01/23 10:20:47;;;;;;;7.47;3.93;;;;;;;2.53;56.16;99993.78;5124519;28;20236;-54
2022/01/23 10:23:15;;;;;;;4.83;4.30;;;;;;;2.64;55.48;99996.44;5125319;28;20706;-53
2022/01/23 10:25:44;;;;;;;4.80;4.30;;;;;;;2.66;55.33;99982.81;5107517;28;20201;-54
2022/01/23 10:28:16;;;;;;;8.53;4.03;;;;;;;2.71;55.09;99983.72;5127492;28;20199;-55
2022/01/23 10:30:47;;;;;;;5.07;4.30;;;;;;;2.62;55.33;99990.44;5125969;28;20643;-59
2022/01/23 10:33:18;;;;;;;5.13;4.63;;;;;;;2.75;55.52;99988.03;5108303;27;20219;-59
2022/01/23 10:36:00;;;;;;;6.87;4.13;;;;;;;2.79;55.18;99989.78;5105942;28;20291;-55
2022/01/23 10:38:30;;;;;;;7.90;4.90;;;;;;;2.91;55.20;99987.34;5107180;28;20638;-53
2022/01/23 10:41:07;;;;;;;5.47;4.17;;;;;;;2.87;55.46;99993.28;5106802;28;20204;-53
2022/01/23 10:46:43;;;;;;;7.93;4.63;;;;;;;2.81;55.48;99985.53;5100309;28;20227;-59
2022/01/23 10:49:10;;;;;;;4.50;3.90;;;;;;;2.80;53.64;99978.69;5086652;28;20269;-60
2022/01/23 10:51:37;;;;;;;4.47;4.07;;;;;;;2.69;54.45;99987.97;5086892;28;20200;-54
2022/01/23 10:54:15;;;;;;;5.80;4.83;;;;;;;2.60;55.07;99964.78;5086205;28;20230;-55
2022/01/23 10:57:01;;;;;;;6.53;5.47;;;;;;;2.70;55.60;99970.91;5074041;28;20290;-55
2022/01/23 10:59:43;;;;;;;6.80;4.93;;;;;;;2.78;56.20;99977.81;5072605;28;20592;-55
2022/01/23 11:02:13;;;;;;;11.63;5.37;;;;;;;2.85;55.26;99973.59;5073072;28;20196;-55
2022/01/23 11:04:59;;;;;;;10.53;5.83;;;;;;;2.84;55.92;99972.72;5073052;28;20262;-55
2022/01/23 11:07:28;;;;;;;6.77;5.20;;;;;;;3.01;56.59;99967.78;5072394;28;20224;-54
2022/01/23 11:10:01;;;;;;;9.33;5.83;;;;;;;2.96;55.44;99964.28;5072555;28;20591;-54
2022/01/23 11:18:05;;;;;;;26.97;12.37;;;;;;;2.76;55.31;99948.75;5072597;28;20215;-55
2022/01/23 11:20:35;;;;;;;22.87;10.63;;;;;;;2.67;55.53;99951.22;5072312;28;20587;-54
2022/01/23 11:23:10;;;;;;;26.73;12.87;;;;;;;2.78;54.46;99949.63;5072353;28;20202;-55
2022/01/23 11:25:38;;;;;;;14.07;9.57;;;;;;;2.83;55.58;99952.22;5072369;28;20314;-54
2022/01/23 11:28:05;;;;;;;18.30;9.83;;;;;;;2.81;56.26;99949.66;5072265;28;20198;-54
2022/01/23 11:30:39;;;;;;;7.80;5.83;;;;;;;2.59;55.81;99944.31;5072326;28;20326;-54
2022/01/23 11:33:09;;;;;;;6.97;5.40;;;;;;;2.58;56.44;99940.88;5072081;28;20204;-55
2022/01/23 11:35:36;;;;;;;6.57;5.23;;;;;;;2.51;56.55;99936.53;5072420;28;20192;-55
2022/01/23 11:38:10;;;;;;;8.93;5.03;;;;;;;2.49;57.16;99941.63;5072141;28;20283;-55
2022/01/23 11:50:34;;;;;;;9.73;5.63;;;;;;;2.55;57.31;99945.97;5072068;28;20212;-60
2022/01/23 11:54:39;;;;;;;6.73;4.90;;;;;;;2.35;56.84;99937.22;5092029;28;20234;-59
2022/01/23 11:57:26;;;;;;;7.60;5.17;;;;;;;2.24;57.66;99942.22;5088448;28;20207;-59
2022/01/23 11:59:53;;;;;;;7.57;5.53;;;;;;;2.26;58.17;99948.19;5085777;28;20274;-61
2022/01/23 12:02:29;;;;;;;7.60;6.23;;;;;;;2.28;58.70;99953.34;5081218;28;20199;-60
2022/01/23 12:05:22;;;;;;;8.37;5.20;;;;;;;2.23;57.86;99932.81;5087547;28;20222;-59
2022/01/23 12:08:32;;;;;;;9.80;5.70;;;;;;;2.13;58.06;99948.94;5078798;28;20267;-58
2022/01/23 12:11:38;;;;;;;7.53;5.17;;;;;;;2.10;59.11;99942.06;5081179;28;20917;-58
2022/01/23 12:17:20;;;;;;;7.27;5.50;;;;;;;2.14;58.35;99948.91;5048245;28;20567;-60
2022/01/23 12:19:58;;;;;;;7.07;5.53;;;;;;;2.10;57.97;99952.31;5082110;28;20222;-59
2022/01/23 12:22:40;;;;;;;6.73;5.77;;;;;;;1.98;59.29;99949.59;5084047;28;20211;-55
2022/01/23 12:25:14;;;;;;;9.53;5.87;;;;;;;1.99;59.50;99951.31;5080990;28;21139;-60
2022/01/23 12:27:42;;;;;;;7.70;6.30;;;;;;;1.88;60.16;99950.31;5080674;28;20197;-59
2022/01/23 12:30:31;;;;;;;9.27;5.73;;;;;;;1.88;60.35;99929.84;5080342;28;20222;-59
2022/01/23 12:33:11;;;;;;;8.77;6.20;;;;;;;1.86;60.83;99939.19;5081747;28;20665;-54
2022/01/23 12:35:41;;;;;;;7.20;5.63;;;;;;;1.90;60.70;99953.75;5087424;28;20201;-54
2022/01/23 12:38:12;;;;;;;6.93;6.17;;;;;;;1.98;59.98;99946.16;5091405;28;20203;-59
2022/01/23 12:40:43;;;;;;;8.83;6.00;;;;;;;1.91;60.83;99932.44;5091461;28;20260;-59
2022/01/23 12:43:12;;;;;;;6.43;5.60;;;;;;;1.98;61.27;99948.72;5076779;28;20204;-54
2022/01/23 12:45:48;;;;;;;8.17;5.27;;;;;;;1.98;60.71;99938.47;5076067;28;20253;-55
2022/01/23 12:48:48;;;;;;;7.40;6.27;;;;;;;2.04;60.71;99944.53;5090023;28;20219;-56
2022/01/23 12:51:43;;;;;;;9.93;6.67;;;;;;;2.00;61.26;99917.19;5080869;28;20688;-55
2022/01/23 12:54:22;;;;;;;7.63;5.70;;;;;;;2.15;60.28;99929.28;5081960;28;20316;-54
2022/01/23 12:56:51;;;;;;;7.03;5.37;;;;;;;2.18;59.53;99950.69;5077377;28;20301;-59
2022/01/23 12:59:28;;;;;;;11.20;5.93;;;;;;;2.12;60.30;99942.09;5090524;28;20262;-59
2022/01/23 13:02:05;;;;;;;8.10;6.17;;;;;;;2.18;59.93;99934.47;5090274;28;20216;-58
2022/01/23 13:04:39;;;;;;;7.77;5.73;;;;;;;2.14;60.93;99943.78;5090465;28;20234;-59
2022/01/23 13:07:15;;;;;;;8.10;5.97;;;;;;;2.12;61.08;99948.06;5075114;28;20227;-58
2022/01/23 13:09:53;;;;;;;12.07;5.97;;;;;;;2.16;61.02;99946.38;5075903;28;20696;-58
2022/01/23 13:12:46;;;;;;;13.33;6.83;;;;;;;2.28;60.99;99945.66;5069933;28;20221;-58
2022/01/23 13:15:38;;;;;;;7.33;5.77;;;;;;;2.31;60.71;99946.56;5069650;28;20219;-55
2022/01/23 13:31:57;;;;;;;12.37;6.03;;;;;;;1.90;61.54;99969.13;5069977;28;20217;-59
2022/01/23 13:34:27;;;;;;;6.10;4.97;;;;;;;1.94;61.38;99970.84;5070235;28;20196;-58
2022/01/23 13:36:55;;;;;;;8.33;5.50;;;;;;;2.01;62.00;99969.25;5071091;28;20227;-59
2022/01/23 13:39:24;;;;;;;6.70;5.77;;;;;;;1.98;61.70;99971.75;5074627;28;20233;-58
2022/01/23 13:42:18;;;;;;;9.83;6.17;;;;;;;1.95;62.48;99966.59;5085676;28;20227;-59
2022/01/23 13:53:26;;;;;;;8.73;6.03;;;;;;;1.72;62.50;99969.72;5089981;28;20291;-59
2022/01/23 13:58:41;;;;;;;8.47;5.60;;;;;;;1.75;62.37;99966.34;5089737;28;20682;-59
2022/01/23 14:01:34;;;;;;;6.83;5.03;;;;;;;1.73;62.04;99965.44;5088409;28;20223;-58
2022/01/23 14:04:01;;;;;;;6.70;4.93;;;;;;;1.61;61.38;99939.69;5082995;28;20591;-59
2022/01/23 14:06:28;;;;;;;7.00;5.00;;;;;;;1.72;61.81;99971.41;5078447;28;20414;-59
2022/01/23 14:09:04;;;;;;;9.90;5.67;;;;;;;1.68;62.45;99973.09;5082668;28;20248;-60
2022/01/23 14:11:31;;;;;;;8.20;5.23;;;;;;;1.65;62.58;99975.59;5080842;28;20219;-59
2022/01/23 14:14:12;;;;;;;5.93;5.10;;;;;;;1.67;63.15;99981.59;5079202;28;20195;-59
2022/01/23 14:16:39;;;;;;;5.93;5.10;;;;;;;1.68;62.96;99977.34;5079647;28;20192;-59
2022/01/23 14:19:22;;;;;;;8.03;6.03;;;;;;;1.69;63.26;99968.84;5078380;28;20199;-59
2022/01/23 14:21:52;;;;;;;7.27;5.40;;;;;;;1.69;62.82;99971.38;5083373;28;20196;-59
2022/01/23 14:24:27;;;;;;;10.30;6.20;;;;;;;1.70;63.62;99979.06;5090082;28;20195;-59
2022/01/23 14:27:01;;;;;;;10.00;6.60;;;;;;;1.81;63.28;99976.66;5090308;28;20194;-58
2022/01/23 14:29:32;;;;;;;8.53;6.57;;;;;;;1.74;63.84;99979.97;5090106;28;20290;-59
2022/01/23 14:32:08;;;;;;;10.20;6.13;;;;;;;1.71;64.30;99965.44;5093183;28;20211;-59
2022/01/23 14:34:35;;;;;;;15.27;6.07;;;;;;;1.94;78.73;99958.06;5090229;28;20300;-60
2022/01/23 14:37:06;;;;;;;8.13;6.20;;;;;;;2.40;73.67;99968.84;5073025;28;20216;-59
2022/01/23 14:39:34;;;;;;;9.40;5.67;;;;;;;2.32;64.19;99978.16;5079514;28;20720;-59
2022/01/23 14:42:11;;;;;;;6.20;5.33;;;;;;;2.21;63.99;99969.50;5090175;28;20218;-60
2022/01/23 14:44:40;;;;;;;8.37;6.03;;;;;;;2.07;63.56;99980.41;5078632;28;20228;-59
2022/01/23 14:47:09;;;;;;;6.53;5.67;;;;;;;1.81;63.97;99979.19;5082771;28;20211;-58
2022/01/23 14:49:37;;;;;;;7.63;5.80;;;;;;;1.79;63.90;99978.34;5075288;28;20239;-58
2022/01/23 14:52:10;;;;;;;7.70;6.00;;;;;;;1.93;63.66;99981.94;5075237;28;20233;-57